createdAt,value
2022-10-28T00:00:38.724Z,17.00
2022-10-28T00:03:05.753Z,16.80
2022-10-28T00:05:34.597Z,16.60
2022-10-28T00:08:01.544Z,16.50
2022-10-28T00:10:29.416Z,16.40
2022-10-28T00:12:56.388Z,16.40
2022-10-28T00:15:23.329Z,16.30
2022-10-28T00:17:50.316Z,16.30
2022-10-28T00:20:17.313Z,16.20
2022-10-28T00:22:44.290Z,16.20
2022-10-28T00:25:11.280Z,16.10
2022-10-28T00:27:38.186Z,16.10
2022-10-28T00:30:05.581Z,16.00
2022-10-28T00:32:32.633Z,16.10
2022-10-28T00:34:59.544Z,16.10
2022-10-28T00:37:26.402Z,16.00
2022-10-28T00:39:53.271Z,16.00
2022-10-28T00:42:22.338Z,16.10
2022-10-28T00:44:53.735Z,16.10
2022-10-28T00:47:35.691Z,16.10
2022-10-28T00:50:27.373Z,16.10
2022-10-28T00:53:03.779Z,16.10
2022-10-28T00:55:33.186Z,16.10
2022-10-28T00:58:01.825Z,16.10
2022-10-28T01:00:28.887Z,16.10
2022-10-28T01:02:56.535Z,16.10
2022-10-28T01:05:27.546Z,16.10
2022-10-28T01:07:58.504Z,16.10
2022-10-28T01:10:52.163Z,16.20
2022-10-28T01:13:50.234Z,16.20
2022-10-28T01:16:32.866Z,16.20
2022-10-28T01:19:25.194Z,16.20
2022-10-28T01:22:13.495Z,16.30
2022-10-28T01:25:17.349Z,16.20
2022-10-28T01:28:06.103Z,16.30
2022-10-28T01:30:53.835Z,16.30
2022-10-28T01:33:38.774Z,16.40
2022-10-28T01:36:16.667Z,16.40
2022-10-28T01:39:12.840Z,16.40
2022-10-28T01:41:48.399Z,16.40
2022-10-28T01:44:28.310Z,16.40
2022-10-28T01:47:09.912Z,16.40
2022-10-28T01:49:44.836Z,16.40
2022-10-28T01:52:14.843Z,16.40
2022-10-28T01:54:46.238Z,16.30
2022-10-28T01:57:15.215Z,16.30
2022-10-28T01:59:43.280Z,16.40
2022-10-28T02:02:10.250Z,16.40
2022-10-28T02:04:37.147Z,16.40
2022-10-28T02:07:05.026Z,16.40
2022-10-28T02:10:00.615Z,16.40
2022-10-28T02:12:34.203Z,16.40
2022-10-28T02:15:19.006Z,16.30
2022-10-28T02:18:01.017Z,16.30
2022-10-28T02:20:34.133Z,16.40
2022-10-28T02:23:28.548Z,16.30
2022-10-28T02:26:27.056Z,16.30
2022-10-28T02:29:03.025Z,16.30
2022-10-28T02:31:49.739Z,16.30
2022-10-28T02:34:21.686Z,16.20
2022-10-28T02:36:52.729Z,16.10
2022-10-28T02:39:26.369Z,16.10
2022-10-28T02:42:42.505Z,16.10
2022-10-28T02:45:17.454Z,16.10
2022-10-28T02:47:52.856Z,16.00
2022-10-28T02:50:25.204Z,16.00
2022-10-28T02:52:56.756Z,16.00
2022-10-28T02:55:27.249Z,16.00
2022-10-28T02:57:54.364Z,15.90
2022-10-28T03:00:24.967Z,15.90
2022-10-28T03:02:52.125Z,15.90
2022-10-28T03:05:19.245Z,15.90
2022-10-28T03:07:46.183Z,15.90
2022-10-28T03:10:13.069Z,15.90
2022-10-28T03:12:40.016Z,15.90
2022-10-28T03:15:07.415Z,15.90
2022-10-28T03:17:34.331Z,15.90
2022-10-28T03:20:01.393Z,15.90
2022-10-28T03:22:28.375Z,15.90
2022-10-28T03:24:55.311Z,15.90
2022-10-28T03:27:22.252Z,15.90
2022-10-28T03:29:49.142Z,16.00
2022-10-28T03:32:16.107Z,16.00
2022-10-28T03:34:43.065Z,15.90
2022-10-28T03:37:10.243Z,15.90
2022-10-28T03:39:37.126Z,15.90
2022-10-28T03:42:04.130Z,16.00
2022-10-28T03:44:31.087Z,16.20
2022-10-28T03:46:58.059Z,16.40
2022-10-28T03:49:24.946Z,16.50
2022-10-28T03:51:51.746Z,16.50
2022-10-28T03:54:18.797Z,16.60
2022-10-28T03:56:45.712Z,16.60
2022-10-28T03:59:14.167Z,16.60
2022-10-28T04:01:43.440Z,16.60
2022-10-28T04:04:10.387Z,16.60
2022-10-28T04:06:37.328Z,16.70
2022-10-28T04:09:04.269Z,16.50
2022-10-28T04:11:31.311Z,16.30
2022-10-28T04:13:58.277Z,16.20
2022-10-28T04:16:25.249Z,16.00
2022-10-28T04:18:52.144Z,15.80
2022-10-28T04:21:19.085Z,15.70
2022-10-28T04:23:45.957Z,15.60
2022-10-28T04:26:14.165Z,15.70
2022-10-28T04:28:41.352Z,15.80
2022-10-28T04:31:10.055Z,15.70
2022-10-28T04:33:36.957Z,15.80
2022-10-28T04:36:04.102Z,15.80
2022-10-28T04:38:31.063Z,15.70
2022-10-28T04:40:58.159Z,15.60
2022-10-28T04:43:25.100Z,15.50
2022-10-28T04:45:52.322Z,15.40
2022-10-28T04:48:19.511Z,15.50
2022-10-28T04:50:46.442Z,15.60
2022-10-28T04:53:13.692Z,15.60
2022-10-28T04:55:40.687Z,15.70
2022-10-28T04:58:07.629Z,15.90
2022-10-28T05:00:34.670Z,16.30
2022-10-28T05:03:02.755Z,16.40
2022-10-28T05:05:29.838Z,16.80
2022-10-28T05:07:56.990Z,17.00
2022-10-28T05:10:24.547Z,17.10
2022-10-28T05:12:51.426Z,16.90
2022-10-28T05:15:18.323Z,16.80
2022-10-28T05:17:46.813Z,16.70
2022-10-28T05:20:15.980Z,16.80
2022-10-28T05:22:53.960Z,16.50
2022-10-28T05:25:22.806Z,16.50
2022-10-28T05:27:50.271Z,16.10
2022-10-28T05:30:17.974Z,16.10
2022-10-28T05:32:45.171Z,16.10
2022-10-28T05:35:12.653Z,16.00
2022-10-28T05:37:39.549Z,15.70
2022-10-28T05:40:06.988Z,15.60
2022-10-28T05:42:33.951Z,15.40
2022-10-28T05:45:00.845Z,15.10
2022-10-28T05:47:27.710Z,14.90
2022-10-28T05:49:54.712Z,14.80
2022-10-28T05:52:21.588Z,14.60
2022-10-28T05:54:48.509Z,14.50
2022-10-28T05:57:15.435Z,14.40
2022-10-28T05:59:42.320Z,14.40
2022-10-28T06:02:15.679Z,14.30
2022-10-28T06:04:42.794Z,14.30
2022-10-28T06:07:09.772Z,14.20
2022-10-28T06:09:36.824Z,14.20
2022-10-28T06:12:03.722Z,14.10
2022-10-28T06:14:30.770Z,14.10
2022-10-28T06:16:57.917Z,14.20
2022-10-28T06:19:24.814Z,14.20
2022-10-28T06:21:51.802Z,14.30
2022-10-28T06:24:18.700Z,14.30
2022-10-28T06:26:45.680Z,14.40
2022-10-28T06:29:12.762Z,14.40
2022-10-28T06:31:40.904Z,14.50
2022-10-28T06:34:09.201Z,14.60
2022-10-28T06:36:36.250Z,14.70
2022-10-28T06:39:03.747Z,14.80
2022-10-28T06:41:31.039Z,15.00
2022-10-28T06:43:57.991Z,15.00
2022-10-28T06:46:25.715Z,15.00
2022-10-28T06:48:55.708Z,15.20
2022-10-28T06:51:23.006Z,15.40
2022-10-28T06:53:51.195Z,15.60
2022-10-28T06:56:18.555Z,15.70
2022-10-28T06:58:50.777Z,15.90
2022-10-28T07:01:18.135Z,16.00
2022-10-28T07:03:45.363Z,16.10
2022-10-28T07:08:39.364Z,16.50
2022-10-28T07:11:06.292Z,16.60
2022-10-28T07:13:33.251Z,16.70
2022-10-28T07:16:01.098Z,16.80
2022-10-28T07:18:29.627Z,17.00
2022-10-28T07:21:01.019Z,17.00
2022-10-28T07:23:29.147Z,17.20
2022-10-28T07:25:57.076Z,17.30
2022-10-28T07:28:26.675Z,17.40
2022-10-28T07:30:54.109Z,17.50
2022-10-28T07:33:21.186Z,17.60
2022-10-28T07:35:48.113Z,17.70
2022-10-28T07:38:15.290Z,17.70
2022-10-28T07:40:42.306Z,17.70
2022-10-28T07:43:09.476Z,17.80
2022-10-28T07:45:36.933Z,17.70
2022-10-28T07:48:04.994Z,17.60
2022-10-28T07:50:31.947Z,17.60
2022-10-28T07:52:59.976Z,17.80
2022-10-28T07:55:27.012Z,18.00
2022-10-28T07:57:54.168Z,18.20
2022-10-28T08:00:21.337Z,18.40
2022-10-28T08:02:48.268Z,18.60
2022-10-28T08:05:15.487Z,18.60
2022-10-28T08:07:42.477Z,18.70
2022-10-28T08:10:09.691Z,18.90
2022-10-28T08:12:36.604Z,19.00
2022-10-28T08:15:04.265Z,19.20
2022-10-28T08:17:31.256Z,19.60
2022-10-28T08:19:58.246Z,19.90
2022-10-28T08:22:25.229Z,20.00
2022-10-28T08:24:52.111Z,20.00
2022-10-28T08:27:19.011Z,20.40
2022-10-28T08:29:45.830Z,20.40
2022-10-28T08:32:15.044Z,20.80
2022-10-28T08:34:43.653Z,21.00
2022-10-28T08:37:11.237Z,21.20
2022-10-28T08:39:38.247Z,21.30
2022-10-28T08:42:27.031Z,21.50
2022-10-28T08:45:35.749Z,21.50
2022-10-28T08:48:15.305Z,21.40
2022-10-28T08:50:56.053Z,21.40
2022-10-28T08:53:37.332Z,21.70
2022-10-28T08:56:25.487Z,21.70
2022-10-28T08:58:54.809Z,21.80
2022-10-28T09:04:44.626Z,21.70
2022-10-28T09:07:20.307Z,22.00
2022-10-28T09:09:49.813Z,22.70
2022-10-28T09:12:31.924Z,23.80
2022-10-28T09:15:05.096Z,25.20
2022-10-28T09:17:34.870Z,26.40
2022-10-28T09:20:16.336Z,25.90
2022-10-28T09:22:43.262Z,25.90
2022-10-28T09:25:24.250Z,27.00
2022-10-28T09:28:35.406Z,28.40
2022-10-28T09:31:21.328Z,28.60
2022-10-28T09:33:53.935Z,28.20
2022-10-28T09:36:37.810Z,28.50
2022-10-28T09:39:06.279Z,30.40
2022-10-28T09:41:38.840Z,28.60
2022-10-28T09:44:11.719Z,27.80
2022-10-28T09:46:39.996Z,28.60
2022-10-28T09:49:15.393Z,28.80
2022-10-28T09:52:13.876Z,27.50
2022-10-28T09:54:48.386Z,28.30
2022-10-28T09:57:17.337Z,29.30
2022-10-28T09:59:45.077Z,30.50
2022-10-28T10:02:27.131Z,31.00
2022-10-28T10:04:56.996Z,31.30
2022-10-28T10:07:32.189Z,31.50
2022-10-28T10:12:32.933Z,30.20
2022-10-28T10:15:00.495Z,32.20
2022-10-28T10:17:37.477Z,31.00
2022-10-28T10:20:13.591Z,29.60
2022-10-28T10:22:43.235Z,30.20
2022-10-28T10:25:19.121Z,31.00
2022-10-28T10:28:14.483Z,29.70
2022-10-28T10:31:05.485Z,30.00
2022-10-28T10:33:36.543Z,29.80
2022-10-28T10:36:23.151Z,30.10
2022-10-28T10:38:55.223Z,30.80
2022-10-28T10:41:44.613Z,30.40
2022-10-28T10:44:20.663Z,31.00
2022-10-28T10:46:48.112Z,29.90
2022-10-28T10:49:15.631Z,29.00
2022-10-28T10:51:52.986Z,28.50
2022-10-28T10:54:20.503Z,28.40
2022-10-28T10:56:47.541Z,28.00
2022-10-28T10:59:31.454Z,28.00
2022-10-28T11:01:59.206Z,27.50
2022-10-28T11:04:27.791Z,27.40
2022-10-28T11:06:57.222Z,28.50
2022-10-28T11:09:39.499Z,28.50
2022-10-28T11:12:16.703Z,28.00
2022-10-28T11:14:56.034Z,27.90
2022-10-28T11:17:34.608Z,27.80
2022-10-28T11:20:23.581Z,27.60
2022-10-28T11:23:01.244Z,28.00
2022-10-28T11:25:44.025Z,28.30
2022-10-28T11:28:16.988Z,28.40
2022-10-28T11:34:17.016Z,29.70
2022-10-28T11:36:51.105Z,30.40
2022-10-28T11:39:36.779Z,29.90
2022-10-28T11:42:49.299Z,28.90
2022-10-28T11:45:23.861Z,28.50
2022-10-28T11:48:09.216Z,28.00
2022-10-28T11:51:10.360Z,27.60
2022-10-28T11:53:40.046Z,26.90
2022-10-28T11:56:15.899Z,26.60
2022-10-28T11:59:01.764Z,26.40
2022-10-28T12:01:57.721Z,26.50
2022-10-28T12:04:39.550Z,26.40
2022-10-28T12:07:15.156Z,26.30
2022-10-28T12:09:57.089Z,26.40
2022-10-28T12:12:34.878Z,26.10
2022-10-28T12:15:33.631Z,26.20
2022-10-28T12:18:23.082Z,26.60
2022-10-28T12:20:54.623Z,26.80
2022-10-28T12:23:24.836Z,26.90
2022-10-28T12:25:57.897Z,26.90
2022-10-28T12:28:27.780Z,27.20
2022-10-28T12:30:56.364Z,26.90
2022-10-28T12:33:39.445Z,26.70
2022-10-28T12:36:10.026Z,26.60
2022-10-28T12:39:01.927Z,26.40
2022-10-28T12:41:54.408Z,26.30
2022-10-28T12:44:23.672Z,26.50
2022-10-28T12:47:36.736Z,26.50
2022-10-28T12:50:09.078Z,26.40
2022-10-28T12:52:40.107Z,26.50
2022-10-28T12:55:24.324Z,26.50
2022-10-28T12:58:18.633Z,26.30
2022-10-28T13:00:54.453Z,26.10
2022-10-28T13:03:21.456Z,26.10
2022-10-28T13:05:51.855Z,26.10
2022-10-28T13:08:40.745Z,26.40
2022-10-28T13:11:32.075Z,26.40
2022-10-28T13:14:16.747Z,26.30
2022-10-28T13:16:58.648Z,26.00
2022-10-28T13:19:40.603Z,25.90
2022-10-28T13:22:29.540Z,25.90
2022-10-28T13:25:20.676Z,25.70
2022-10-28T13:27:48.943Z,25.80
2022-10-28T13:30:21.210Z,25.80
2022-10-28T13:33:06.206Z,25.80
2022-10-28T13:35:33.488Z,25.80
2022-10-28T13:38:01.644Z,25.80
2022-10-28T13:40:31.590Z,25.70
2022-10-28T13:43:00.048Z,25.70
2022-10-28T13:45:48.409Z,25.80
2022-10-28T13:48:48.586Z,25.80
2022-10-28T13:51:15.579Z,25.80
2022-10-28T13:53:45.497Z,25.80
2022-10-28T13:56:16.987Z,25.70
2022-10-28T13:58:59.265Z,25.70
2022-10-28T14:02:01.738Z,25.60
2022-10-28T14:04:38.896Z,25.60
2022-10-28T14:07:20.132Z,25.40
2022-10-28T14:09:48.466Z,25.40
2022-10-28T14:12:26.933Z,25.40
2022-10-28T14:15:05.975Z,25.40
2022-10-28T14:17:41.384Z,25.30
2022-10-28T14:20:29.228Z,25.30
2022-10-28T14:22:56.772Z,25.10
2022-10-28T14:25:41.872Z,25.00
2022-10-28T14:28:27.513Z,25.10
2022-10-28T14:31:12.284Z,25.00
2022-10-28T14:33:41.920Z,25.10
2022-10-28T14:36:17.951Z,25.00
2022-10-28T14:38:53.681Z,25.00
2022-10-28T14:41:43.416Z,25.00
2022-10-28T14:44:28.860Z,25.00
2022-10-28T14:47:25.369Z,24.90
2022-10-28T14:50:21.856Z,24.80
2022-10-28T14:52:50.552Z,24.80
2022-10-28T14:55:28.426Z,24.70
2022-10-28T14:58:14.509Z,24.60
2022-10-28T15:00:49.592Z,24.40
2022-10-28T15:03:16.705Z,24.30
2022-10-28T15:05:43.545Z,24.30
2022-10-28T15:08:10.931Z,24.20
2022-10-28T15:10:40.474Z,24.10
2022-10-28T15:13:16.684Z,24.00
2022-10-28T15:15:55.896Z,23.90
2022-10-28T15:18:25.991Z,23.80
2022-10-28T15:21:15.936Z,23.70
2022-10-28T15:23:46.224Z,23.70
2022-10-28T15:26:16.333Z,23.60
2022-10-28T15:28:43.778Z,23.40
2022-10-28T15:31:10.744Z,23.40
2022-10-28T15:33:40.292Z,23.30
2022-10-28T15:36:15.108Z,23.20
2022-10-28T15:39:07.375Z,23.10
2022-10-28T15:41:41.608Z,23.00
2022-10-28T15:44:22.888Z,22.90
2022-10-28T15:46:50.640Z,22.70
2022-10-28T15:49:38.903Z,22.80
2022-10-28T15:52:18.074Z,22.80
2022-10-28T15:54:56.239Z,22.70
2022-10-28T15:57:25.745Z,22.50
2022-10-28T16:00:21.797Z,22.50
2022-10-28T16:02:55.904Z,22.40
2022-10-28T16:05:44.511Z,22.30
2022-10-28T16:08:17.764Z,22.30
2022-10-28T16:10:53.652Z,22.10
2022-10-28T16:13:41.866Z,22.10
2022-10-28T16:16:12.949Z,22.10
2022-10-28T16:18:50.041Z,21.90
2022-10-28T16:21:23.846Z,21.90
2022-10-28T16:23:56.353Z,21.80
2022-10-28T16:26:23.647Z,21.60
2022-10-28T16:28:50.541Z,21.50
2022-10-28T16:31:19.701Z,21.50
2022-10-28T16:33:47.167Z,21.40
2022-10-28T16:36:14.087Z,21.40
2022-10-28T16:38:41.088Z,21.40
2022-10-28T16:41:16.312Z,21.40
2022-10-28T16:43:43.454Z,21.40
2022-10-28T16:46:12.607Z,21.30
2022-10-28T16:48:40.165Z,21.30
2022-10-28T16:51:18.014Z,21.20
2022-10-28T16:53:47.486Z,21.20
2022-10-28T16:56:16.199Z,21.10
2022-10-28T16:58:44.283Z,21.10
2022-10-28T17:01:11.978Z,21.10
2022-10-28T17:03:39.056Z,21.20
2022-10-28T17:06:07.766Z,21.20
2022-10-28T17:09:01.182Z,21.10
2022-10-28T17:11:21.818Z,21.10
2022-10-28T17:13:49.694Z,21.20
2022-10-28T17:16:16.635Z,21.10
2022-10-28T17:18:44.469Z,21.10
2022-10-28T17:21:12.070Z,21.00
2022-10-28T17:23:40.363Z,20.90
2022-10-28T17:26:07.408Z,20.90
2022-10-28T17:28:34.516Z,20.90
2022-10-28T17:31:06.838Z,20.90
2022-10-28T17:33:34.463Z,20.90
2022-10-28T17:36:02.857Z,20.90
2022-10-28T17:38:30.517Z,20.80
2022-10-28T17:40:58.162Z,20.80
2022-10-28T17:43:25.484Z,20.80
2022-10-28T17:45:52.619Z,20.70
2022-10-28T17:48:19.580Z,20.80
2022-10-28T17:50:54.552Z,20.70
2022-10-28T17:53:22.239Z,20.80
2022-10-28T17:55:59.115Z,20.70
2022-10-28T17:58:26.701Z,20.70
2022-10-28T18:01:04.344Z,20.60
2022-10-28T18:03:38.190Z,20.60
2022-10-28T18:06:10.355Z,20.50
2022-10-28T18:08:40.596Z,20.50
2022-10-28T18:11:09.902Z,20.40
2022-10-28T18:13:39.297Z,20.40
2022-10-28T18:16:08.863Z,20.30
2022-10-28T18:18:41.004Z,20.30
2022-10-28T18:21:11.238Z,20.20
2022-10-28T18:23:38.167Z,20.10
2022-10-28T18:26:12.416Z,20.20
2022-10-28T18:28:40.726Z,20.10
2022-10-28T18:31:17.238Z,20.00
2022-10-28T18:33:44.663Z,20.10
2022-10-28T18:36:12.891Z,20.00
2022-10-28T18:38:40.093Z,19.90
2022-10-28T18:41:12.710Z,19.80
2022-10-28T18:43:40.818Z,19.70
2022-10-28T18:46:08.865Z,19.70
2022-10-28T18:48:36.386Z,19.60
2022-10-28T18:51:12.977Z,19.60
2022-10-28T18:53:43.023Z,19.60
2022-10-28T18:56:15.633Z,19.50
2022-10-28T18:58:43.056Z,19.40
2022-10-28T19:01:15.926Z,19.40
2022-10-28T19:03:44.293Z,19.30
2022-10-28T19:06:14.313Z,19.30
2022-10-28T19:08:41.708Z,19.20
2022-10-28T19:11:11.101Z,19.10
2022-10-28T19:13:40.696Z,19.10
2022-10-28T19:16:08.899Z,19.10
2022-10-28T19:18:38.648Z,19.10
2022-10-28T19:21:16.265Z,19.10
2022-10-28T19:23:43.866Z,19.10
2022-10-28T19:26:12.209Z,19.20
2022-10-28T19:28:40.828Z,19.10
2022-10-28T19:31:13.167Z,19.10
2022-10-28T19:33:41.591Z,19.10
2022-10-28T19:36:19.341Z,19.10
2022-10-28T19:38:48.327Z,19.00
2022-10-28T19:41:17.703Z,18.90
2022-10-28T19:43:45.197Z,18.90
2022-10-28T19:46:20.809Z,18.90
2022-10-28T19:48:50.103Z,18.80
2022-10-28T19:51:19.799Z,18.70
2022-10-28T19:53:51.871Z,18.60
2022-10-28T19:56:20.021Z,18.50
2022-10-28T19:58:49.588Z,18.40
2022-10-28T20:01:17.587Z,18.30
2022-10-28T20:03:48.994Z,18.30
2022-10-28T20:06:19.057Z,18.40
2022-10-28T20:08:47.156Z,18.30
2022-10-28T20:11:27.068Z,18.10
2022-10-28T20:13:56.521Z,18.00
2022-10-28T20:16:24.432Z,17.90
2022-10-28T20:18:51.569Z,17.80
2022-10-28T20:21:20.634Z,17.90
2022-10-28T20:26:33.288Z,17.90
2022-10-28T20:29:03.096Z,17.80
2022-10-28T20:31:31.850Z,17.80
2022-10-28T20:34:03.877Z,17.90
2022-10-28T20:36:36.377Z,17.90
2022-10-28T20:39:10.396Z,17.90
2022-10-28T20:41:38.517Z,18.00
2022-10-28T20:44:06.713Z,18.10
2022-10-28T20:46:34.554Z,18.10
2022-10-28T20:49:01.774Z,18.10
2022-10-28T20:51:30.930Z,18.20
2022-10-28T20:53:58.168Z,18.30
2022-10-28T20:56:27.165Z,18.30
2022-10-28T20:58:55.041Z,18.30
2022-10-28T21:01:24.642Z,18.40
2022-10-28T21:04:00.544Z,18.30
2022-10-28T21:06:28.510Z,18.40
2022-10-28T21:08:56.661Z,18.40
2022-10-28T21:11:24.676Z,18.40
2022-10-28T21:13:54.387Z,18.30
2022-10-28T21:16:22.097Z,18.30
2022-10-28T21:18:49.934Z,18.20
2022-10-28T21:21:18.257Z,18.10
2022-10-28T21:23:45.084Z,18.10
2022-10-28T21:26:13.152Z,18.00
2022-10-28T21:28:43.865Z,17.90
2022-10-28T21:31:13.405Z,17.90
2022-10-28T21:33:41.785Z,17.70
2022-10-28T21:36:12.527Z,17.70
2022-10-28T21:38:39.733Z,17.60
2022-10-28T21:41:14.873Z,17.50
2022-10-28T21:43:45.015Z,17.50
2022-10-28T21:46:11.930Z,17.40
2022-10-28T21:48:39.035Z,17.40
2022-10-28T21:51:11.618Z,17.40
2022-10-28T21:53:42.846Z,17.40
2022-10-28T21:56:16.649Z,17.40
2022-10-28T21:58:43.854Z,17.50
2022-10-28T22:01:13.451Z,17.60
2022-10-28T22:03:41.300Z,17.70
2022-10-28T22:06:08.476Z,17.60
2022-10-28T22:08:35.652Z,17.60
2022-10-28T22:11:09.507Z,17.60
2022-10-28T22:13:37.277Z,17.60
2022-10-28T22:16:11.230Z,17.50
2022-10-28T22:18:38.932Z,17.50
2022-10-28T22:21:15.925Z,17.40
2022-10-28T22:23:42.971Z,17.30
2022-10-28T22:26:12.766Z,17.20
2022-10-28T22:28:40.152Z,17.20
2022-10-28T22:31:09.160Z,17.00
2022-10-28T22:33:36.753Z,16.90
2022-10-28T22:36:09.672Z,16.80
2022-10-28T22:38:37.102Z,16.80
2022-10-28T22:41:13.161Z,16.70
2022-10-28T22:43:41.147Z,16.60
2022-10-28T22:46:08.606Z,16.50
2022-10-28T22:48:35.714Z,16.50
2022-10-28T22:51:03.284Z,16.50
2022-10-28T22:53:30.469Z,16.40
2022-10-28T22:55:57.660Z,16.40
2022-10-28T22:58:26.019Z,16.30
2022-10-28T23:00:52.959Z,16.30
2022-10-28T23:03:20.034Z,16.20
2022-10-28T23:05:46.936Z,16.20
2022-10-28T23:08:16.328Z,16.30
2022-10-28T23:10:43.239Z,16.30
2022-10-28T23:13:13.707Z,16.40
2022-10-28T23:15:40.594Z,16.50
2022-10-28T23:18:07.463Z,16.50
2022-10-28T23:20:35.659Z,16.50
2022-10-28T23:23:02.854Z,16.50
2022-10-28T23:25:29.790Z,16.60
2022-10-28T23:27:57.138Z,16.60
2022-10-28T23:30:24.286Z,16.50
2022-10-28T23:32:51.171Z,16.30
2022-10-28T23:35:18.069Z,16.20
2022-10-28T23:37:44.905Z,16.20
2022-10-28T23:40:12.233Z,16.10
2022-10-28T23:42:39.047Z,16.00
2022-10-28T23:45:06.781Z,15.90
2022-10-28T23:47:33.626Z,15.80
2022-10-28T23:50:00.497Z,15.80
2022-10-28T23:52:27.362Z,15.80
2022-10-28T23:54:54.249Z,15.80
2022-10-28T23:57:21.044Z,15.90
2022-10-28T23:59:48.058Z,16.00
